createdAt,value
2023-04-16T00:01:03.980Z,5.57
2023-04-16T00:03:30.878Z,5.97
2023-04-16T00:05:57.698Z,4.85
2023-04-16T00:08:24.691Z,5.15
2023-04-16T00:10:53.054Z,5.47
2023-04-16T00:13:19.907Z,5.25
2023-04-16T00:15:46.538Z,5.88
2023-04-16T00:18:13.200Z,6.78
2023-04-16T00:20:39.934Z,5.10
2023-04-16T00:23:06.638Z,5.85
2023-04-16T00:25:33.344Z,6.65
2023-04-16T00:28:00.003Z,6.20
2023-04-16T00:30:26.685Z,6.47
2023-04-16T00:32:53.317Z,6.00
2023-04-16T00:35:20.365Z,6.13
2023-04-16T00:37:47.029Z,6.32
2023-04-16T00:40:13.770Z,6.13
2023-04-16T00:42:40.527Z,5.70
2023-04-16T00:45:07.893Z,6.07
2023-04-16T00:47:34.590Z,6.13
2023-04-16T00:50:02.877Z,6.63
2023-04-16T00:52:31.187Z,6.40
2023-04-16T00:54:59.306Z,7.15
2023-04-16T00:57:27.027Z,6.15
2023-04-16T00:59:54.607Z,6.75
2023-04-16T01:02:21.407Z,6.78
2023-04-16T01:04:48.338Z,7.75
2023-04-16T01:07:14.950Z,7.03
2023-04-16T01:09:41.626Z,7.47
2023-04-16T01:12:08.291Z,7.80
2023-04-16T01:14:36.491Z,8.13
2023-04-16T01:17:04.121Z,7.18
2023-04-16T01:19:36.365Z,6.90
2023-04-16T01:22:04.046Z,6.57
2023-04-16T01:24:31.306Z,6.07
2023-04-16T01:26:59.355Z,6.70
2023-04-16T01:29:26.467Z,6.13
2023-04-16T01:31:54.294Z,6.40
2023-04-16T01:34:21.099Z,7.05
2023-04-16T01:36:47.737Z,6.28
2023-04-16T01:39:16.367Z,6.47
2023-04-16T01:41:43.677Z,6.45
2023-04-16T01:44:10.774Z,6.45
2023-04-16T01:46:38.221Z,6.53
2023-04-16T01:49:07.341Z,5.88
2023-04-16T01:51:34.222Z,5.75
2023-04-16T01:54:01.344Z,6.22
2023-04-16T01:56:28.077Z,6.35
2023-04-16T01:58:54.871Z,5.53
2023-04-16T02:01:21.837Z,4.90
2023-04-16T02:03:49.000Z,5.20
2023-04-16T02:06:15.842Z,5.30
2023-04-16T02:08:43.232Z,4.70
2023-04-16T02:11:09.969Z,5.07
2023-04-16T02:13:36.825Z,5.10
2023-04-16T02:16:03.644Z,5.18
2023-04-16T02:18:30.565Z,5.18
2023-04-16T02:21:00.385Z,5.32
2023-04-16T02:23:27.192Z,5.20
2023-04-16T02:25:53.946Z,5.50
2023-04-16T02:28:20.710Z,5.32
2023-04-16T02:30:47.386Z,5.10
2023-04-16T02:33:14.125Z,5.63
2023-04-16T02:35:41.107Z,5.22
2023-04-16T02:38:08.684Z,4.40
2023-04-16T02:40:35.862Z,5.75
2023-04-16T02:43:02.709Z,4.97
2023-04-16T02:45:31.573Z,5.03
2023-04-16T02:47:58.415Z,5.28
2023-04-16T02:50:25.076Z,5.38
2023-04-16T02:52:51.813Z,5.68
2023-04-16T02:55:18.588Z,6.13
2023-04-16T02:57:45.371Z,6.28
2023-04-16T03:00:12.858Z,5.90
2023-04-16T03:02:39.681Z,6.13
2023-04-16T03:05:06.762Z,7.05
2023-04-16T03:07:33.382Z,6.63
2023-04-16T03:10:00.075Z,7.22
2023-04-16T03:12:26.724Z,6.32
2023-04-16T03:14:53.422Z,6.88
2023-04-16T03:17:20.118Z,7.93
2023-04-16T03:19:46.881Z,7.63
2023-04-16T03:22:13.568Z,7.50
2023-04-16T03:24:40.239Z,7.50
2023-04-16T03:27:06.867Z,8.20
2023-04-16T03:29:33.591Z,7.72
2023-04-16T03:32:00.254Z,8.70
2023-04-16T03:34:26.956Z,8.45
2023-04-16T03:36:53.609Z,7.82
2023-04-16T03:39:20.607Z,7.68
2023-04-16T03:41:47.328Z,8.65
2023-04-16T03:44:13.983Z,8.10
2023-04-16T03:46:40.684Z,7.78
2023-04-16T03:49:07.957Z,8.45
2023-04-16T03:51:34.982Z,8.60
2023-04-16T03:54:01.655Z,8.18
2023-04-16T03:56:28.306Z,7.68
2023-04-16T03:58:55.000Z,7.97
2023-04-16T04:01:21.679Z,8.65
2023-04-16T04:03:48.512Z,8.35
2023-04-16T04:06:15.339Z,8.25
2023-04-16T04:08:42.788Z,8.80
2023-04-16T04:11:09.416Z,9.40
2023-04-16T04:13:36.067Z,8.93
2023-04-16T04:16:02.762Z,9.35
2023-04-16T04:18:29.435Z,8.43
2023-04-16T04:20:56.157Z,8.80
2023-04-16T04:23:22.813Z,8.95
2023-04-16T04:25:49.544Z,9.38
2023-04-16T04:28:16.225Z,9.48
2023-04-16T04:30:42.883Z,9.75
2023-04-16T04:33:09.580Z,10.07
2023-04-16T04:35:36.229Z,9.57
2023-04-16T04:38:03.256Z,9.30
2023-04-16T04:40:29.948Z,10.20
2023-04-16T04:42:56.571Z,10.15
2023-04-16T04:45:25.647Z,10.13
2023-04-16T04:47:55.856Z,9.25
2023-04-16T04:50:22.708Z,9.95
2023-04-16T04:52:49.518Z,10.05
2023-04-16T04:55:16.631Z,10.20
2023-04-16T04:57:43.611Z,9.40
2023-04-16T05:00:11.346Z,11.30
2023-04-16T05:02:38.765Z,10.00
2023-04-16T05:05:06.196Z,9.38
2023-04-16T05:07:32.864Z,9.77
2023-04-16T05:09:59.648Z,8.73
2023-04-16T05:12:26.624Z,9.60
2023-04-16T05:14:53.287Z,10.63
2023-04-16T05:17:19.974Z,9.60
2023-04-16T05:19:46.676Z,10.30
2023-04-16T05:22:13.368Z,10.82
2023-04-16T05:24:40.291Z,10.40
2023-04-16T05:27:07.029Z,10.07
2023-04-16T05:29:33.729Z,9.95
2023-04-16T05:32:00.562Z,10.23
2023-04-16T05:34:27.212Z,10.73
2023-04-16T05:36:53.863Z,11.05
2023-04-16T05:39:21.245Z,10.75
2023-04-16T05:41:47.902Z,10.27
2023-04-16T05:44:15.343Z,10.80
2023-04-16T05:46:42.028Z,10.25
2023-04-16T05:49:09.018Z,10.95
2023-04-16T05:51:36.158Z,11.48
2023-04-16T05:54:02.860Z,11.50
2023-04-16T05:56:29.582Z,11.52
2023-04-16T05:58:56.238Z,13.73
2023-04-16T06:01:22.970Z,12.00
2023-04-16T06:03:49.786Z,12.05
2023-04-16T06:06:16.532Z,11.60
2023-04-16T06:08:43.260Z,11.82
2023-04-16T06:11:09.956Z,13.90
2023-04-16T06:13:37.389Z,14.00
2023-04-16T06:16:04.249Z,13.82
2023-04-16T06:18:31.003Z,14.82
2023-04-16T06:20:59.325Z,14.25
2023-04-16T06:23:26.105Z,14.15
2023-04-16T06:25:52.813Z,15.10
2023-04-16T06:28:19.463Z,15.13
2023-04-16T06:30:46.959Z,14.38
2023-04-16T06:33:13.649Z,14.18
2023-04-16T06:35:40.300Z,15.07
2023-04-16T06:38:06.965Z,14.88
2023-04-16T06:40:33.714Z,14.55
2023-04-16T06:43:00.395Z,15.52
2023-04-16T06:45:27.128Z,15.27
2023-04-16T06:47:53.791Z,14.88
2023-04-16T06:50:21.247Z,14.07
2023-04-16T06:52:47.890Z,15.15
2023-04-16T06:55:14.619Z,14.52
2023-04-16T06:57:41.426Z,15.27
2023-04-16T07:00:08.920Z,14.68
2023-04-16T07:02:35.729Z,14.00
2023-04-16T07:05:02.532Z,13.75
2023-04-16T07:07:29.221Z,16.00
2023-04-16T07:09:55.945Z,13.55
2023-04-16T07:12:22.992Z,13.20
2023-04-16T07:14:49.914Z,13.60
2023-04-16T07:17:16.582Z,12.95
2023-04-16T07:19:43.244Z,12.48
2023-04-16T07:22:09.899Z,12.35
2023-04-16T07:24:36.637Z,12.40
2023-04-16T07:27:03.323Z,13.13
2023-04-16T07:29:29.981Z,11.48
2023-04-16T07:31:57.572Z,12.20
2023-04-16T07:34:24.302Z,13.05
2023-04-16T07:36:51.076Z,13.10
2023-04-16T07:39:17.740Z,13.40
2023-04-16T07:41:44.452Z,13.15
2023-04-16T07:44:11.168Z,13.38
2023-04-16T07:46:46.050Z,12.90
2023-04-16T07:49:13.464Z,13.15
2023-04-16T07:51:40.533Z,13.15
2023-04-16T07:54:07.209Z,13.20
2023-04-16T07:56:33.858Z,14.07
2023-04-16T07:59:07.988Z,13.75
2023-04-16T08:01:45.676Z,13.65
2023-04-16T08:04:12.525Z,13.07
2023-04-16T08:06:39.291Z,13.27
2023-04-16T08:09:06.089Z,14.38
2023-04-16T08:11:33.142Z,13.90
2023-04-16T08:13:59.798Z,12.68
2023-04-16T08:16:26.532Z,12.48
2023-04-16T08:18:53.284Z,11.98
2023-04-16T08:21:19.986Z,12.13
2023-04-16T08:23:46.668Z,12.00
2023-04-16T08:26:13.402Z,11.57
2023-04-16T08:28:40.041Z,12.13
2023-04-16T08:31:06.754Z,12.82
2023-04-16T08:33:33.505Z,13.95
2023-04-16T08:36:00.246Z,14.20
2023-04-16T08:38:27.251Z,13.60
2023-04-16T08:40:56.326Z,13.10
2023-04-16T08:43:24.146Z,13.13
2023-04-16T08:45:53.528Z,12.02
2023-04-16T08:48:22.094Z,11.40
2023-04-16T08:50:52.711Z,11.82
2023-04-16T08:53:29.746Z,10.23
2023-04-16T08:56:02.861Z,11.88
2023-04-16T08:58:34.056Z,10.77
2023-04-16T09:01:03.465Z,11.15
2023-04-16T09:03:34.820Z,11.13
2023-04-16T09:06:04.663Z,11.75
2023-04-16T09:08:32.353Z,9.82
2023-04-16T09:11:00.041Z,11.07
2023-04-16T09:13:27.098Z,10.63
2023-04-16T09:15:54.673Z,10.02
2023-04-16T09:18:21.596Z,10.07
2023-04-16T09:20:49.652Z,10.63
2023-04-16T09:23:16.420Z,10.52
2023-04-16T09:25:43.237Z,11.02
2023-04-16T09:28:10.832Z,11.60
2023-04-16T09:30:37.594Z,12.80
2023-04-16T09:33:22.455Z,11.93
2023-04-16T09:35:51.682Z,9.65
2023-04-16T09:38:19.239Z,10.23
2023-04-16T09:40:47.601Z,10.30
2023-04-16T09:43:18.710Z,9.93
2023-04-16T09:45:55.690Z,9.85
2023-04-16T09:48:33.457Z,9.70
2023-04-16T09:51:01.146Z,9.40
2023-04-16T09:53:30.761Z,10.77
2023-04-16T09:56:02.225Z,10.95
2023-04-16T09:58:29.625Z,11.52
2023-04-16T10:01:07.986Z,10.57
2023-04-16T10:03:36.815Z,10.35
2023-04-16T10:06:25.483Z,10.98
2023-04-16T10:08:54.002Z,10.27
2023-04-16T10:11:21.377Z,11.05
2023-04-16T10:13:48.495Z,10.52
2023-04-16T10:16:15.367Z,11.02
2023-04-16T10:18:44.352Z,11.85
2023-04-16T10:21:15.334Z,13.73
2023-04-16T10:23:43.339Z,11.52
2023-04-16T10:26:10.102Z,11.32
2023-04-16T10:28:37.326Z,10.73
2023-04-16T10:31:07.506Z,11.48
2023-04-16T10:36:15.938Z,10.38
2023-04-16T10:38:47.344Z,10.73
2023-04-16T10:41:14.409Z,11.27
2023-04-16T10:43:46.003Z,12.02
2023-04-16T10:46:41.019Z,11.75
2023-04-16T10:49:17.927Z,12.18
2023-04-16T10:51:56.731Z,10.48
2023-04-16T10:54:27.436Z,11.55
2023-04-16T10:56:57.475Z,11.75
2023-04-16T10:59:25.156Z,11.43
2023-04-16T11:01:56.881Z,9.95
2023-04-16T11:04:30.513Z,8.73
2023-04-16T11:07:04.569Z,9.77
2023-04-16T11:09:51.636Z,8.57
2023-04-16T11:12:29.793Z,9.05
2023-04-16T11:15:04.075Z,8.43
2023-04-16T11:17:33.871Z,9.13
2023-04-16T11:20:01.154Z,9.18
2023-04-16T11:22:28.177Z,9.40
2023-04-16T11:24:56.654Z,8.55
2023-04-16T11:27:24.383Z,9.40
2023-04-16T11:30:02.054Z,9.10
2023-04-16T11:32:34.660Z,9.70
2023-04-16T11:35:13.224Z,9.88
2023-04-16T11:37:40.381Z,10.65
2023-04-16T11:40:08.250Z,9.15
2023-04-16T11:42:38.327Z,11.38
2023-04-16T11:45:05.396Z,11.10
2023-04-16T11:47:32.450Z,11.40
2023-04-16T11:50:25.124Z,11.50
2023-04-16T11:52:53.491Z,12.00
2023-04-16T11:55:20.739Z,12.68
2023-04-16T11:57:47.778Z,11.15
2023-04-16T12:00:15.166Z,12.55
2023-04-16T12:02:46.911Z,11.90
2023-04-16T12:05:34.017Z,11.50
2023-04-16T12:08:08.636Z,11.90
2023-04-16T12:10:55.231Z,11.48
2023-04-16T12:13:23.036Z,12.32
2023-04-16T12:15:52.102Z,11.20
2023-04-16T12:18:20.443Z,11.50
2023-04-16T12:20:47.519Z,10.23
2023-04-16T12:23:28.310Z,11.43
2023-04-16T12:25:56.386Z,11.40
2023-04-16T12:28:34.018Z,9.88
2023-04-16T12:31:01.697Z,11.15
2023-04-16T12:33:28.480Z,10.10
2023-04-16T12:35:55.250Z,9.35
2023-04-16T12:38:24.251Z,11.43
2023-04-16T12:40:51.893Z,9.88
2023-04-16T12:43:19.790Z,11.25
2023-04-16T12:45:46.797Z,10.73
2023-04-16T12:48:13.531Z,10.57
2023-04-16T12:50:40.271Z,10.20
2023-04-16T12:53:07.679Z,9.60
2023-04-16T12:55:34.904Z,10.38
2023-04-16T12:58:02.496Z,10.55
2023-04-16T13:00:29.769Z,11.95
2023-04-16T13:02:57.686Z,10.35
2023-04-16T13:05:24.783Z,10.88
2023-04-16T13:07:52.574Z,10.20
2023-04-16T13:10:21.618Z,10.25
2023-04-16T13:12:49.481Z,9.00
2023-04-16T13:15:16.591Z,9.98
2023-04-16T13:17:43.695Z,10.02
2023-04-16T13:20:10.778Z,10.60
2023-04-16T13:22:37.715Z,10.05
2023-04-16T13:25:05.138Z,12.25
2023-04-16T13:27:32.566Z,10.20
2023-04-16T13:29:59.333Z,10.20
2023-04-16T13:32:26.182Z,10.23
2023-04-16T13:34:52.913Z,10.27
2023-04-16T13:37:19.571Z,10.57
2023-04-16T13:39:46.434Z,10.77
2023-04-16T13:42:13.101Z,10.77
2023-04-16T13:44:39.770Z,10.30
2023-04-16T13:47:06.620Z,11.85
2023-04-16T13:49:36.025Z,11.13
2023-04-16T13:52:03.156Z,9.88
2023-04-16T13:54:29.878Z,10.68
2023-04-16T13:56:56.765Z,9.98
2023-04-16T13:59:23.608Z,11.13
2023-04-16T14:01:51.092Z,11.57
2023-04-16T14:04:17.935Z,11.95
2023-04-16T14:06:44.694Z,13.30
2023-04-16T14:09:11.715Z,12.65
2023-04-16T14:11:38.563Z,12.35
2023-04-16T14:14:05.469Z,12.85
2023-04-16T14:16:32.177Z,12.85
2023-04-16T14:18:58.884Z,12.82
2023-04-16T14:21:27.016Z,12.77
2023-04-16T14:23:53.688Z,12.35
2023-04-16T14:26:20.691Z,10.48
2023-04-16T14:28:47.675Z,11.50
2023-04-16T14:31:14.499Z,10.85
2023-04-16T14:33:41.215Z,10.18
2023-04-16T14:36:07.981Z,10.35
2023-04-16T14:38:34.691Z,11.27
2023-04-16T14:41:01.377Z,10.50
2023-04-16T14:43:28.066Z,9.82
2023-04-16T14:45:54.925Z,10.38
2023-04-16T14:48:22.139Z,10.73
2023-04-16T14:50:48.936Z,11.20
2023-04-16T14:53:15.903Z,10.52
2023-04-16T14:55:42.591Z,11.25
2023-04-16T14:58:10.763Z,10.13
2023-04-16T15:00:37.668Z,9.57
2023-04-16T15:03:05.073Z,10.25
2023-04-16T15:05:31.988Z,10.57
2023-04-16T15:07:58.692Z,11.93
2023-04-16T15:10:25.346Z,10.60
2023-04-16T15:12:52.021Z,10.45
2023-04-16T15:15:18.743Z,11.10
2023-04-16T15:17:45.893Z,10.35
2023-04-16T15:20:13.460Z,11.57
2023-04-16T15:22:40.357Z,11.57
2023-04-16T15:25:07.678Z,11.43
2023-04-16T15:27:34.384Z,12.77
2023-04-16T15:30:01.134Z,11.38
2023-04-16T15:32:27.838Z,11.85
2023-04-16T15:34:54.516Z,11.38
2023-04-16T15:37:21.178Z,11.98
2023-04-16T15:39:47.915Z,11.77
2023-04-16T15:42:14.626Z,12.10
2023-04-16T15:44:41.284Z,11.68
2023-04-16T15:47:08.717Z,11.55
2023-04-16T15:49:36.069Z,12.02
2023-04-16T15:52:03.096Z,11.45
2023-04-16T15:54:30.977Z,11.88
2023-04-16T15:56:58.792Z,11.57
2023-04-16T15:59:28.444Z,11.35
2023-04-16T16:01:56.454Z,12.35
2023-04-16T16:04:23.465Z,12.02
2023-04-16T16:06:50.734Z,11.15
2023-04-16T16:09:18.516Z,11.02
2023-04-16T16:11:45.174Z,12.55
2023-04-16T16:14:11.910Z,11.82
2023-04-16T16:16:39.717Z,12.85
2023-04-16T16:19:06.915Z,11.63
2023-04-16T16:21:33.621Z,10.73
2023-04-16T16:24:00.304Z,10.93
2023-04-16T16:26:27.135Z,11.48
2023-04-16T16:28:53.785Z,12.27
2023-04-16T16:31:20.805Z,11.38
2023-04-16T16:33:47.624Z,12.48
2023-04-16T16:36:14.507Z,11.50
2023-04-16T16:38:42.394Z,12.55
2023-04-16T16:41:09.184Z,13.07
2023-04-16T16:43:36.735Z,11.32
2023-04-16T16:46:03.613Z,11.82
2023-04-16T16:48:30.358Z,12.18
2023-04-16T16:50:57.264Z,11.60
2023-04-16T16:53:24.012Z,12.90
2023-04-16T16:55:50.698Z,11.57
2023-04-16T16:58:17.351Z,12.60
2023-04-16T17:00:44.057Z,13.15
2023-04-16T17:03:11.053Z,12.43
2023-04-16T17:05:38.067Z,11.75
2023-04-16T17:08:04.937Z,13.55
2023-04-16T17:10:31.606Z,12.68
2023-04-16T17:12:58.278Z,12.52
2023-04-16T17:15:25.055Z,14.27
2023-04-16T17:17:51.803Z,14.07
2023-04-16T17:20:18.661Z,13.27
2023-04-16T17:22:45.334Z,13.00
2023-04-16T17:25:12.434Z,13.02
2023-04-16T17:27:41.978Z,11.38
2023-04-16T17:30:09.221Z,11.32
2023-04-16T17:32:35.937Z,11.95
2023-04-16T17:35:04.459Z,12.10
2023-04-16T17:37:31.402Z,12.07
2023-04-16T17:39:58.108Z,11.80
2023-04-16T17:42:24.889Z,11.65
2023-04-16T17:44:51.902Z,11.55
2023-04-16T17:47:18.547Z,11.98
2023-04-16T17:49:45.395Z,11.63
2023-04-16T17:52:12.036Z,10.85
2023-04-16T17:54:38.695Z,12.32
2023-04-16T17:57:05.347Z,11.10
2023-04-16T17:59:33.336Z,11.68
2023-04-16T18:02:00.312Z,11.18
2023-04-16T18:04:27.418Z,12.00
2023-04-16T18:06:54.307Z,11.80
2023-04-16T18:09:20.986Z,10.80
2023-04-16T18:11:47.653Z,10.52
2023-04-16T18:14:16.968Z,11.50
2023-04-16T18:16:45.980Z,12.05
2023-04-16T18:19:13.458Z,11.98
2023-04-16T18:21:40.098Z,12.05
2023-04-16T18:24:07.066Z,12.27
2023-04-16T18:26:35.739Z,12.60
2023-04-16T18:29:03.957Z,13.38
2023-04-16T18:31:30.774Z,11.93
2023-04-16T18:33:58.567Z,13.43
2023-04-16T18:36:26.866Z,12.32
2023-04-16T18:39:01.520Z,13.18
2023-04-16T18:41:29.727Z,11.70
2023-04-16T18:43:56.625Z,10.40
2023-04-16T18:46:23.387Z,12.65
2023-04-16T18:48:50.194Z,10.88
2023-04-16T18:51:17.047Z,10.15
2023-04-16T18:53:45.594Z,10.10
2023-04-16T18:56:12.582Z,9.10
2023-04-16T18:58:39.230Z,9.20
2023-04-16T19:01:11.048Z,9.35
2023-04-16T19:03:38.466Z,9.38
2023-04-16T19:06:06.185Z,8.07
2023-04-16T19:08:33.030Z,7.97
2023-04-16T19:10:59.947Z,7.97
2023-04-16T19:13:26.776Z,7.78
2023-04-16T19:15:59.455Z,8.07
2023-04-16T19:18:26.552Z,7.90
2023-04-16T19:21:01.659Z,9.10
2023-04-16T19:23:28.793Z,9.15
2023-04-16T19:25:59.176Z,9.38
2023-04-16T19:28:26.230Z,9.48
2023-04-16T19:30:53.839Z,11.05
2023-04-16T19:33:20.690Z,10.05
2023-04-16T19:35:47.418Z,10.80
2023-04-16T19:38:14.403Z,10.88
2023-04-16T19:40:44.791Z,9.88
2023-04-16T19:45:43.865Z,8.93
2023-04-16T19:48:11.319Z,10.18
2023-04-16T19:50:44.130Z,9.82
2023-04-16T19:53:11.915Z,10.30
2023-04-16T19:55:42.163Z,11.15
2023-04-16T19:58:09.501Z,11.63
2023-04-16T20:00:43.338Z,11.13
2023-04-16T20:03:10.272Z,11.38
2023-04-16T20:05:36.948Z,10.63
2023-04-16T20:08:03.704Z,11.65
2023-04-16T20:10:31.527Z,11.55
2023-04-16T20:12:58.483Z,11.25
2023-04-16T20:15:25.277Z,11.57
2023-04-16T20:17:52.411Z,12.07
2023-04-16T20:20:19.176Z,10.75
2023-04-16T20:22:45.797Z,11.20
2023-04-16T20:25:14.343Z,12.15
2023-04-16T20:27:41.084Z,12.80
2023-04-16T20:30:08.296Z,11.43
2023-04-16T20:32:34.951Z,12.60
2023-04-16T20:35:02.034Z,12.32
2023-04-16T20:37:29.104Z,12.77
2023-04-16T20:39:56.224Z,12.57
2023-04-16T20:42:26.095Z,13.25
2023-04-16T20:44:56.254Z,11.98
2023-04-16T20:49:50.459Z,11.57
2023-04-16T20:52:17.127Z,12.13
2023-04-16T20:54:44.004Z,14.18
2023-04-16T20:57:10.689Z,13.90
2023-04-16T20:59:37.404Z,14.90
2023-04-16T21:02:04.361Z,14.70
2023-04-16T21:04:31.320Z,14.88
2023-04-16T21:06:58.087Z,15.13
2023-04-16T21:09:24.813Z,15.52
2023-04-16T21:11:51.460Z,15.15
2023-04-16T21:14:18.427Z,14.63
2023-04-16T21:16:45.165Z,14.35
2023-04-16T21:19:12.020Z,16.33
2023-04-16T21:21:38.939Z,15.68
2023-04-16T21:24:06.059Z,16.77
2023-04-16T21:26:32.740Z,15.35
2023-04-16T21:28:59.392Z,15.70
2023-04-16T21:31:26.151Z,15.80
2023-04-16T21:33:52.905Z,16.17
2023-04-16T21:36:19.546Z,17.45
2023-04-16T21:38:46.301Z,17.83
2023-04-16T21:41:12.938Z,16.98
2023-04-16T21:43:39.708Z,16.98
2023-04-16T21:46:06.356Z,17.20
2023-04-16T21:48:33.039Z,17.35
2023-04-16T21:51:06.309Z,16.80
2023-04-16T21:53:33.645Z,16.95
2023-04-16T21:56:00.702Z,18.40
2023-04-16T21:58:27.430Z,17.38
2023-04-16T22:00:54.312Z,17.92
2023-04-16T22:03:26.374Z,17.60
2023-04-16T22:06:02.883Z,18.02
2023-04-16T22:08:30.206Z,17.75
2023-04-16T22:11:01.916Z,18.65
2023-04-16T22:13:32.344Z,17.77
2023-04-16T22:16:03.211Z,18.27
2023-04-16T22:18:33.080Z,18.00
2023-04-16T22:21:00.346Z,19.83
2023-04-16T22:23:27.116Z,19.13
2023-04-16T22:25:55.900Z,20.77
2023-04-16T22:28:23.048Z,21.48
2023-04-16T22:30:50.368Z,20.23
2023-04-16T22:33:17.188Z,20.30
2023-04-16T22:35:43.898Z,20.85
2023-04-16T22:38:10.788Z,25.13
2023-04-16T22:40:37.492Z,23.08
2023-04-16T22:43:04.498Z,21.42
2023-04-16T22:45:31.231Z,23.05
2023-04-16T22:47:57.938Z,24.27
2023-04-16T22:50:24.586Z,22.35
2023-04-16T22:52:51.223Z,23.05
2023-04-16T22:55:18.027Z,22.92
2023-04-16T22:57:44.683Z,22.05
2023-04-16T23:00:15.937Z,21.80
2023-04-16T23:02:43.174Z,23.02
2023-04-16T23:05:10.137Z,22.20
2023-04-16T23:07:36.782Z,22.75
2023-04-16T23:10:04.143Z,24.55
2023-04-16T23:12:30.876Z,23.67
2023-04-16T23:14:58.279Z,23.27
2023-04-16T23:17:25.042Z,23.23
2023-04-16T23:19:51.765Z,23.88
2023-04-16T23:22:18.403Z,23.55
2023-04-16T23:24:45.118Z,23.23
2023-04-16T23:27:11.776Z,25.17
2023-04-16T23:29:38.441Z,25.98
2023-04-16T23:32:05.165Z,25.00
2023-04-16T23:34:32.746Z,24.58
2023-04-16T23:36:59.625Z,24.25
2023-04-16T23:39:26.260Z,24.50
2023-04-16T23:41:52.883Z,23.67
2023-04-16T23:44:19.819Z,24.70
2023-04-16T23:46:46.447Z,25.10
2023-04-16T23:49:13.239Z,24.90
2023-04-16T23:51:40.105Z,27.70
2023-04-16T23:54:07.027Z,26.00
2023-04-16T23:56:33.709Z,28.05
2023-04-16T23:59:00.464Z,25.98
